Time;durP1;ratioP1;P1;durP2;ratioP2;P2;SDS_P1;SDS_P2;PMS_P1;PMS_P2;Temp;Humidity;BMP_temperature;BMP_pressure;BME280_temperature;BME280_humidity;BME280_pressure;Samples;Min_cycle;Max_cycle;Signal;HPM_P1;HPM_P2
2021/05/24 00:01:30;;;;;;;4.32;1.90;;;;;;;18.60;60.35;99513.59;5066460;28;20050;-57
2021/05/24 00:03:55;;;;;;;3.50;1.67;;;;;;;18.60;60.49;99520.75;5066883;28;20090;-56
2021/05/24 00:06:21;;;;;;;2.60;1.45;;;;;;;18.60;60.20;99515.44;5064190;28;20488;-57
2021/05/24 00:08:46;;;;;;;3.17;1.42;;;;;;;18.59;60.33;99519.13;5067723;28;20376;-56
2021/05/24 00:11:12;;;;;;;2.47;1.40;;;;;;;18.58;60.25;99513.03;5068293;28;20125;-57
2021/05/24 00:13:44;;;;;;;3.83;1.40;;;;;;;18.58;60.24;99518.31;5067655;28;20107;-57
2021/05/24 00:16:11;;;;;;;2.67;1.48;;;;;;;18.58;60.13;99517.53;5049938;28;20403;-57
2021/05/24 00:18:37;;;;;;;2.53;1.15;;;;;;;18.57;60.03;99522.03;5064705;28;20432;-56
2021/05/24 00:21:03;;;;;;;2.80;1.38;;;;;;;18.56;59.93;99523.88;5062217;28;20074;-57
2021/05/24 00:23:29;;;;;;;1.77;1.10;;;;;;;18.56;60.08;99520.41;5060237;28;20714;-56
2021/05/24 00:25:55;;;;;;;2.20;1.38;;;;;;;18.55;60.13;99524.09;5062449;28;20167;-56
2021/05/24 00:28:21;;;;;;;3.10;1.45;;;;;;;18.55;60.08;99522.25;5082822;28;20840;-57
2021/05/24 00:30:49;;;;;;;2.25;1.20;;;;;;;18.55;60.18;99518.78;5086763;28;20150;-56
2021/05/24 00:33:17;;;;;;;3.63;1.33;;;;;;;18.54;59.92;99528.59;5088127;28;20078;-57
2021/05/24 00:35:42;;;;;;;4.00;1.58;;;;;;;18.53;59.97;99526.16;5068837;28;20666;-57
2021/05/24 00:38:08;;;;;;;2.65;1.45;;;;;;;18.52;59.87;99525.34;5087413;28;20036;-57
2021/05/24 00:40:35;;;;;;;2.47;1.40;;;;;;;18.53;59.96;99526.16;5088303;28;20437;-57
2021/05/24 00:43:02;;;;;;;2.25;1.23;;;;;;;18.53;60.12;99531.47;5086710;28;20512;-56
2021/05/24 00:45:28;;;;;;;2.78;1.23;;;;;;;18.52;59.85;99535.97;5076244;28;20037;-56
2021/05/24 00:47:54;;;;;;;2.03;1.30;;;;;;;18.52;59.98;99533.31;5083025;28;21480;-56
2021/05/24 00:50:20;;;;;;;2.17;1.27;;;;;;;18.51;59.92;99529.03;5068081;28;20074;-59
2021/05/24 00:52:46;;;;;;;2.13;1.40;;;;;;;18.52;59.83;99535.97;5083933;28;20070;-57
2021/05/24 00:55:12;;;;;;;2.58;1.30;;;;;;;18.51;60.14;99539.66;5087500;28;20032;-56
2021/05/24 00:57:38;;;;;;;2.75;1.20;;;;;;;18.51;59.91;99531.69;5085840;28;20040;-56
2021/05/24 01:00:06;;;;;;;2.25;1.38;;;;;;;18.51;60.14;99534.34;5089376;28;20035;-56
2021/05/24 01:02:32;;;;;;;3.15;1.60;;;;;;;18.50;60.25;99532.72;5091503;28;20115;-57
2021/05/24 01:04:58;;;;;;;2.92;1.15;;;;;;;18.51;59.96;99529.03;5072111;28;20115;-56
2021/05/24 01:07:24;;;;;;;2.50;1.40;;;;;;;18.50;59.83;99526.59;5069920;28;20345;-57
2021/05/24 01:09:50;;;;;;;1.90;1.10;;;;;;;18.50;59.92;99529.25;5085061;28;20043;-59
2021/05/24 01:12:15;;;;;;;2.83;1.30;;;;;;;18.49;60.06;99536.41;5082138;28;20024;-56
2021/05/24 01:14:41;;;;;;;2.53;1.33;;;;;;;18.49;60.01;99535.59;5086915;28;20040;-56
2021/05/24 01:17:07;;;;;;;2.38;1.20;;;;;;;18.48;59.74;99531.31;5084360;28;20063;-56
2021/05/24 01:19:32;;;;;;;2.53;1.17;;;;;;;18.47;59.79;99529.72;5066779;28;20032;-57
2021/05/24 01:21:58;;;;;;;1.70;1.10;;;;;;;18.47;59.96;99532.38;5060918;28;20552;-57
2021/05/24 01:24:24;;;;;;;2.42;1.23;;;;;;;18.47;60.01;99533.16;5069166;28;20036;-57
2021/05/24 01:26:50;;;;;;;3.10;1.20;;;;;;;18.46;60.08;99531.56;5072327;28;20097;-59
2021/05/24 01:29:19;;;;;;;2.35;1.27;;;;;;;18.44;60.04;99528.28;5090310;28;20020;-57
2021/05/24 01:31:45;;;;;;;1.95;1.23;;;;;;;18.47;60.01;99535.00;5062053;28;20029;-56
2021/05/24 01:34:11;;;;;;;1.70;1.15;;;;;;;18.45;60.03;99529.91;5069073;28;20038;-56
2021/05/24 01:36:37;;;;;;;1.75;1.13;;;;;;;18.46;60.04;99539.50;5089936;28;20410;-56
2021/05/24 01:39:04;;;;;;;2.08;1.20;;;;;;;18.45;59.79;99545.03;5090089;28;20024;-56
2021/05/24 01:41:30;;;;;;;2.00;1.10;;;;;;;18.44;59.71;99541.56;5091156;28;20106;-57
2021/05/24 01:43:55;;;;;;;1.60;1.00;;;;;;;18.44;59.75;99538.09;5089969;28;20067;-56
2021/05/24 01:46:21;;;;;;;2.30;1.40;;;;;;;18.44;59.75;99540.75;5070387;28;20039;-56
2021/05/24 01:48:46;;;;;;;1.95;1.23;;;;;;;18.43;59.92;99542.59;5090321;28;20085;-57
2021/05/24 01:51:12;;;;;;;2.00;0.98;;;;;;;18.42;59.68;99543.63;5089658;28;20032;-56
2021/05/24 01:53:38;;;;;;;3.88;1.30;;;;;;;18.43;59.98;99542.59;5080540;28;20056;-57
2021/05/24 01:56:04;;;;;;;1.92;1.25;;;;;;;18.44;59.88;99540.75;5084182;28;20484;-56
2021/05/24 01:58:31;;;;;;;1.92;1.10;;;;;;;18.41;59.85;99549.97;5090251;28;20028;-57
2021/05/24 02:01:08;;;;;;;2.25;1.10;;;;;;;18.40;59.84;99547.53;5089890;28;20051;-56
2021/05/24 02:03:35;;;;;;;2.03;1.38;;;;;;;18.41;59.85;99551.81;5077177;28;20024;-56
2021/05/24 02:06:03;;;;;;;1.33;0.98;;;;;;;18.41;59.70;99541.19;5070961;28;20119;-56
2021/05/24 02:08:29;;;;;;;1.92;1.08;;;;;;;18.40;59.63;99555.50;5089610;28;20109;-56
2021/05/24 02:10:55;;;;;;;1.45;1.00;;;;;;;18.40;59.57;99552.84;5053712;28;20042;-56
2021/05/24 02:13:21;;;;;;;2.50;1.00;;;;;;;18.39;59.83;99552.03;5089574;28;20024;-57
2021/05/24 02:15:47;;;;;;;2.03;1.42;;;;;;;18.39;59.75;99546.72;5070279;28;20040;-57
2021/05/24 02:18:13;;;;;;;1.92;1.17;;;;;;;18.38;59.60;99555.72;5061768;28;20316;-57
2021/05/24 02:20:39;;;;;;;1.90;1.30;;;;;;;18.38;59.76;99549.59;5084822;28;20040;-57
2021/05/24 02:23:08;;;;;;;2.40;1.40;;;;;;;18.37;59.63;99559.41;5066492;28;20028;-57
2021/05/24 02:25:33;;;;;;;3.08;1.27;;;;;;;18.37;59.57;99564.72;5085627;28;20063;-57
2021/05/24 02:27:59;;;;;;;1.65;0.95;;;;;;;18.37;59.64;99562.06;5062629;28;20051;-57
2021/05/24 02:30:26;;;;;;;2.25;1.30;;;;;;;18.37;59.71;99566.56;5089278;28;20536;-57
2021/05/24 02:32:52;;;;;;;1.60;1.00;;;;;;;18.36;59.48;99565.75;5075910;28;20153;-57
2021/05/24 02:35:21;;;;;;;1.55;1.02;;;;;;;18.35;59.42;99561.47;5089404;28;20028;-56
2021/05/24 02:37:47;;;;;;;1.75;1.17;;;;;;;18.35;59.55;99565.97;5088719;28;20089;-56
2021/05/24 02:40:14;;;;;;;2.25;1.20;;;;;;;18.35;59.86;99577.41;5071271;28;20039;-57
2021/05/24 02:42:40;;;;;;;2.05;1.27;;;;;;;18.34;59.82;99573.13;5056430;28;20070;-57
2021/05/24 02:45:09;;;;;;;1.95;1.38;;;;;;;18.35;59.63;99576.59;5084228;22;20064;-58
2021/05/24 02:47:35;;;;;;;1.38;0.98;;;;;;;18.34;59.49;99573.13;5044168;28;20594;-59
2021/05/24 02:50:03;;;;;;;1.15;0.95;;;;;;;18.34;59.81;99573.13;5068706;28;20417;-58
2021/05/24 02:52:28;;;;;;;1.90;0.95;;;;;;;18.33;59.66;99571.50;5041177;28;20052;-57
2021/05/24 02:54:53;;;;;;;1.80;1.08;;;;;;;18.33;59.61;99573.34;5058841;28;20032;-59
2021/05/24 02:57:19;;;;;;;2.78;1.15;;;;;;;18.33;59.76;99581.31;5042312;28;20036;-58
2021/05/24 02:59:44;;;;;;;2.50;1.23;;;;;;;18.32;59.83;99575.19;5067842;28;20064;-59
2021/05/24 03:02:14;;;;;;;1.85;1.15;;;;;;;18.32;59.55;99579.69;5033146;28;20032;-59
2021/05/24 03:04:39;;;;;;;1.83;1.10;;;;;;;18.31;59.36;99580.72;5038721;28;20201;-58
2021/05/24 03:07:06;;;;;;;1.63;1.20;;;;;;;18.31;59.51;99584.19;5062165;28;20040;-59
2021/05/24 03:09:32;;;;;;;2.20;1.20;;;;;;;18.29;59.63;99578.25;5053532;28;20128;-59
2021/05/24 03:11:57;;;;;;;2.85;1.25;;;;;;;18.30;59.79;99589.69;5067707;28;20116;-57
2021/05/24 03:14:23;;;;;;;1.20;0.80;;;;;;;18.30;59.80;99581.72;5037170;28;20032;-58
2021/05/24 03:16:48;;;;;;;1.90;1.20;;;;;;;18.30;59.30;99589.69;5055718;28;20142;-58
2021/05/24 03:19:14;;;;;;;2.20;1.20;;;;;;;18.29;59.61;99596.03;5061850;28;20035;-58
2021/05/24 03:21:43;;;;;;;2.28;1.17;;;;;;;18.28;59.40;99595.22;5064331;28;20102;-58
2021/05/24 03:24:09;;;;;;;2.05;1.30;;;;;;;18.29;59.83;99599.50;5062428;28;20055;-59
2021/05/24 03:26:34;;;;;;;1.92;1.30;;;;;;;18.28;59.50;99595.22;5046128;28;20440;-59
2021/05/24 03:29:00;;;;;;;1.55;1.02;;;;;;;18.28;59.65;99603.19;5043914;28;20036;-58
2021/05/24 03:31:25;;;;;;;2.28;1.50;;;;;;;18.27;59.52;99599.72;5066453;28;20028;-59
2021/05/24 03:33:51;;;;;;;2.47;1.38;;;;;;;18.27;59.61;99612.16;5050058;28;20036;-58
2021/05/24 03:36:16;;;;;;;2.03;1.20;;;;;;;18.27;59.45;99604.22;5067722;28;20068;-58
2021/05/24 03:38:42;;;;;;;1.52;1.08;;;;;;;18.27;59.62;99612.16;5041206;28;20079;-58
2021/05/24 03:41:07;;;;;;;1.63;1.00;;;;;;;18.26;59.44;99610.53;5066797;28;20044;-62
2021/05/24 03:43:33;;;;;;;2.15;1.30;;;;;;;18.25;59.46;99611.56;5067912;28;20039;-57
2021/05/24 03:45:58;;;;;;;2.55;1.20;;;;;;;18.25;59.41;99616.88;5066597;28;20807;-58
2021/05/24 03:48:24;;;;;;;2.65;1.60;;;;;;;18.24;59.33;99615.25;5068351;28;20033;-58
2021/05/24 03:50:49;;;;;;;1.95;1.00;;;;;;;18.23;59.28;99621.59;5049538;28;20040;-58
2021/05/24 03:53:15;;;;;;;1.90;1.17;;;;;;;18.23;59.34;99629.56;5035766;28;20101;-58
2021/05/24 03:55:40;;;;;;;3.58;1.10;;;;;;;18.22;59.52;99630.59;5060198;28;20357;-58
2021/05/24 03:58:06;;;;;;;1.38;1.00;;;;;;;18.22;59.51;99627.94;5066497;28;20455;-58
2021/05/24 04:00:31;;;;;;;6.82;1.63;;;;;;;18.21;59.68;99626.31;5060462;28;20053;-59
2021/05/24 04:03:00;;;;;;;1.90;1.17;;;;;;;18.20;59.40;99633.47;5061114;28;20460;-57
2021/05/24 04:05:37;;;;;;;1.23;1.10;;;;;;;18.21;59.39;99636.94;5052722;28;20037;-57
2021/05/24 04:08:05;;;;;;;2.60;1.27;;;;;;;18.21;59.62;99634.28;5066691;28;20040;-59
2021/05/24 04:10:34;;;;;;;1.38;0.90;;;;;;;18.19;59.39;99644.31;5049604;28;20025;-58
2021/05/24 04:13:00;;;;;;;2.47;1.30;;;;;;;18.19;59.24;99646.97;5037752;28;20127;-58
2021/05/24 04:15:26;;;;;;;2.42;1.20;;;;;;;18.18;59.65;99650.66;5042461;28;20487;-58
2021/05/24 04:17:54;;;;;;;1.48;0.93;;;;;;;18.18;59.33;99653.31;5013945;28;20041;-57
2021/05/24 04:20:22;;;;;;;1.50;1.10;;;;;;;18.17;59.24;99660.44;5060384;28;20044;-58
2021/05/24 04:22:47;;;;;;;2.05;1.20;;;;;;;18.18;59.46;99661.25;5037651;28;20431;-57
2021/05/24 04:25:13;;;;;;;2.05;1.10;;;;;;;18.17;59.27;99670.25;5049164;28;20029;-58
2021/05/24 04:27:39;;;;;;;1.90;1.17;;;;;;;18.17;59.48;99668.41;5065944;28;20537;-58
2021/05/24 04:30:07;;;;;;;1.83;1.15;;;;;;;18.17;59.09;99670.25;5065518;28;20036;-58
2021/05/24 04:32:32;;;;;;;2.65;1.15;;;;;;;18.16;59.33;99681.91;5067036;28;20087;-59
2021/05/24 04:34:57;;;;;;;2.05;1.00;;;;;;;18.16;59.39;99682.72;5061618;28;20423;-58
2021/05/24 04:37:23;;;;;;;1.90;1.23;;;;;;;18.16;59.20;99690.69;5064701;28;20426;-59
2021/05/24 04:39:48;;;;;;;2.10;1.13;;;;;;;18.16;59.27;99700.47;5033970;28;20033;-57
2021/05/24 04:42:14;;;;;;;2.53;1.50;;;;;;;18.15;59.44;99698.84;5033652;28;20694;-58
2021/05/24 04:44:40;;;;;;;2.28;1.20;;;;;;;18.15;59.37;99707.63;5055991;28;20052;-58
2021/05/24 04:47:07;;;;;;;1.60;1.05;;;;;;;18.13;59.30;99706.19;5041155;28;20041;-57
2021/05/24 04:49:32;;;;;;;1.98;1.15;;;;;;;18.13;59.39;99711.50;5064804;28;20021;-58
2021/05/24 04:51:59;;;;;;;1.73;1.00;;;;;;;18.13;59.17;99722.13;5032272;28;20601;-58
2021/05/24 04:54:25;;;;;;;2.05;1.00;;;;;;;18.11;59.36;99725.00;5047983;28;20532;-58
2021/05/24 04:56:51;;;;;;;2.05;1.20;;;;;;;18.11;59.34;99722.34;5056023;28;20059;-58
2021/05/24 04:59:16;;;;;;;2.33;1.10;;;;;;;18.11;59.37;99729.47;5020193;28;20471;-59
2021/05/24 05:01:42;;;;;;;1.50;1.00;;;;;;;18.11;59.04;99738.25;5068650;28;20045;-58
2021/05/24 05:04:07;;;;;;;2.05;1.10;;;;;;;18.11;59.17;99732.13;5070830;28;20036;-58
2021/05/24 05:06:33;;;;;;;1.83;1.17;;;;;;;18.11;59.25;99734.78;5069601;28;20390;-59
2021/05/24 05:08:58;;;;;;;1.52;1.00;;;;;;;18.10;58.76;99736.63;5069201;28;20107;-57
2021/05/24 05:11:24;;;;;;;2.38;1.05;;;;;;;18.10;59.09;99744.59;5052256;28;20029;-59
2021/05/24 05:13:49;;;;;;;1.40;1.00;;;;;;;18.09;59.14;99737.66;5056450;28;20098;-60
2021/05/24 05:16:15;;;;;;;2.22;1.15;;;;;;;18.09;58.94;99744.81;5061103;28;20037;-58
2021/05/24 05:18:40;;;;;;;1.15;0.88;;;;;;;18.09;59.16;99750.13;5064348;28;20036;-59
2021/05/24 05:21:06;;;;;;;1.83;1.00;;;;;;;18.07;59.18;99750.34;5058271;28;20043;-58
2021/05/24 05:23:32;;;;;;;2.28;0.93;;;;;;;18.08;58.92;99756.44;5056805;28;20739;-58
2021/05/24 05:25:57;;;;;;;2.53;1.33;;;;;;;18.07;58.83;99760.94;5069183;28;20510;-57
2021/05/24 05:28:24;;;;;;;1.52;1.00;;;;;;;18.07;58.92;99760.94;5041016;28;20040;-58
2021/05/24 05:30:50;;;;;;;1.60;1.00;;;;;;;18.07;59.04;99760.94;5046195;28;20037;-58
2021/05/24 05:33:16;;;;;;;1.45;0.95;;;;;;;18.08;58.84;99765.22;5060335;28;20464;-57
2021/05/24 05:35:48;;;;;;;1.40;1.00;;;;;;;18.08;59.04;99767.06;5067983;28;20047;-58
2021/05/24 05:38:15;;;;;;;2.15;1.20;;;;;;;18.07;59.17;99774.22;5041727;28;20040;-58
2021/05/24 05:40:42;;;;;;;2.95;1.10;;;;;;;18.08;59.20;99772.38;5055881;28;20098;-58
2021/05/24 05:43:08;;;;;;;1.45;0.90;;;;;;;18.08;59.15;99777.69;5019048;28;20032;-57
2021/05/24 05:45:33;;;;;;;1.50;1.02;;;;;;;18.06;59.18;99775.25;5057200;28;20053;-58
2021/05/24 05:48:00;;;;;;;1.80;0.95;;;;;;;18.07;59.05;99781.38;5031048;28;20071;-58
2021/05/24 05:50:26;;;;;;;1.65;1.13;;;;;;;18.07;59.07;99786.66;5033174;28;20445;-57
2021/05/24 05:52:52;;;;;;;2.33;0.98;;;;;;;18.06;58.84;99796.47;5056242;28;20047;-59
2021/05/24 05:55:17;;;;;;;1.67;1.00;;;;;;;18.06;59.03;99790.34;5045756;28;20037;-58
2021/05/24 05:57:42;;;;;;;1.75;1.10;;;;;;;18.06;59.02;99796.47;5065396;28;20479;-57
2021/05/24 06:00:09;;;;;;;1.75;1.10;;;;;;;18.06;58.79;99796.47;5047022;28;20029;-57
2021/05/24 06:02:34;;;;;;;2.78;1.30;;;;;;;18.06;58.79;99800.97;5035977;28;20037;-58
2021/05/24 06:04:59;;;;;;;1.90;1.10;;;;;;;18.07;58.77;99802.59;5068172;28;20113;-58
2021/05/24 06:07:25;;;;;;;1.50;0.93;;;;;;;18.05;58.64;99802.81;5044568;28;20037;-59
2021/05/24 06:09:50;;;;;;;1.60;1.05;;;;;;;18.06;58.59;99808.94;5039168;28;20093;-58
2021/05/24 06:12:16;;;;;;;1.63;1.10;;;;;;;18.06;58.97;99807.09;5035499;28;20306;-58
2021/05/24 06:14:41;;;;;;;1.73;0.93;;;;;;;18.06;58.55;99812.41;5060505;28;20037;-58
2021/05/24 06:17:07;;;;;;;1.50;1.05;;;;;;;18.06;58.69;99811.59;5047360;28;20120;-59
2021/05/24 06:19:32;;;;;;;1.17;0.90;;;;;;;18.05;58.75;99821.38;5049656;28;20033;-59
2021/05/24 06:21:58;;;;;;;1.92;1.05;;;;;;;18.05;58.97;99825.88;5031875;28;20095;-58
2021/05/24 06:24:24;;;;;;;2.00;1.13;;;;;;;18.05;58.87;99825.88;5063325;28;20548;-57
2021/05/24 06:26:49;;;;;;;1.70;1.00;;;;;;;18.06;59.08;99838.13;4999570;28;20123;-58
2021/05/24 06:29:21;;;;;;;1.13;0.90;;;;;;;18.04;58.94;99837.53;5054007;28;20025;-59
2021/05/24 06:31:49;;;;;;;1.67;0.98;;;;;;;18.05;58.70;99844.47;5037603;28;20041;-61
2021/05/24 06:34:15;;;;;;;2.67;1.10;;;;;;;18.05;59.03;99847.94;5033051;28;20041;-56
2021/05/24 06:36:40;;;;;;;2.92;1.00;;;;;;;18.06;59.27;99851.38;5059132;28;20438;-58
2021/05/24 06:39:06;;;;;;;2.70;1.10;;;;;;;18.06;59.02;99854.84;5066376;28;20082;-57
2021/05/24 06:41:32;;;;;;;3.00;1.30;;;;;;;18.06;59.41;99857.50;5049389;28;20451;-59
2021/05/24 06:43:59;;;;;;;4.88;1.25;;;;;;;18.07;59.59;99861.78;5061289;28;20056;-59
2021/05/24 06:46:24;;;;;;;1.63;0.90;;;;;;;18.07;59.60;99867.09;5058340;28;20123;-59
2021/05/24 06:48:50;;;;;;;6.97;1.20;;;;;;;18.08;59.57;99878.53;5026182;28;20144;-58
2021/05/24 06:51:15;;;;;;;2.47;1.00;;;;;;;18.08;60.02;99878.53;5064827;28;20028;-57
2021/05/24 06:53:41;;;;;;;1.60;0.95;;;;;;;18.09;59.98;99882.81;5049726;28;20047;-58
2021/05/24 06:56:06;;;;;;;2.70;1.10;;;;;;;18.08;60.43;99879.34;5049027;28;20036;-58
2021/05/24 06:58:32;;;;;;;4.10;1.48;;;;;;;18.09;60.37;99885.47;5049157;28;20033;-59
2021/05/24 07:00:57;;;;;;;5.38;1.42;;;;;;;18.09;60.49;99890.78;5064720;28;20421;-63
2021/05/24 07:03:23;;;;;;;3.78;1.10;;;;;;;18.09;60.87;99896.09;5048077;28;20036;-61
2021/05/24 07:05:48;;;;;;;4.32;1.08;;;;;;;18.10;60.58;99897.72;5067005;28;20094;-60
2021/05/24 07:08:14;;;;;;;5.47;1.10;;;;;;;18.10;60.89;99906.50;5047988;28;20065;-60
2021/05/24 07:10:39;;;;;;;2.03;1.20;;;;;;;18.11;60.59;99904.66;5066255;28;20060;-61
2021/05/24 07:13:05;;;;;;;3.63;1.20;;;;;;;18.09;60.70;99918.13;5061231;28;20096;-59
2021/05/24 07:15:30;;;;;;;4.72;1.15;;;;;;;18.11;60.47;99920.56;5066453;28;20033;-57
2021/05/24 07:17:56;;;;;;;9.00;1.30;;;;;;;18.08;60.01;99924.47;5049147;28;20044;-57
2021/05/24 07:20:21;;;;;;;5.32;1.35;;;;;;;18.06;59.45;99926.50;5066866;28;20109;-60
2021/05/24 07:22:47;;;;;;;7.70;1.52;;;;;;;18.03;58.51;99940.22;5025868;28;20037;-57
2021/05/24 07:25:13;;;;;;;4.80;1.70;;;;;;;18.00;57.75;99945.13;5051240;28;20033;-58
2021/05/24 07:27:38;;;;;;;4.70;1.50;;;;;;;17.97;57.16;99951.63;5053478;28;20369;-58
2021/05/24 07:30:04;;;;;;;3.75;1.30;;;;;;;17.96;56.81;99950.00;5050338;28;20032;-59
2021/05/24 07:32:30;;;;;;;4.80;1.48;;;;;;;17.93;56.55;99955.72;5049884;28;20064;-57
2021/05/24 07:34:55;;;;;;;5.75;1.70;;;;;;;17.92;56.39;99960.22;5019514;28;20044;-58
2021/05/24 07:37:21;;;;;;;6.13;1.25;;;;;;;17.90;55.64;99969.41;5037016;28;20059;-59
2021/05/24 07:39:47;;;;;;;7.85;1.23;;;;;;;17.87;54.95;99968.00;5034210;28;20423;-58
2021/05/24 07:42:12;;;;;;;5.45;1.40;;;;;;;17.85;55.29;99969.22;5033548;28;20045;-59
2021/05/24 07:44:38;;;;;;;9.73;1.50;;;;;;;17.85;54.85;99974.53;5002103;28;702299;-57
2021/05/24 07:47:03;;;;;;;5.82;1.58;;;;;;;17.83;54.91;99981.84;5056568;28;20040;-59
2021/05/24 07:49:29;;;;;;;6.13;1.40;;;;;;;17.82;54.41;99980.22;5028653;28;20400;-61
2021/05/24 07:51:55;;;;;;;8.05;1.50;;;;;;;17.81;54.18;99984.72;5048355;28;20044;-59
2021/05/24 07:54:21;;;;;;;7.60;1.67;;;;;;;17.78;53.83;99990.44;5039307;28;20486;-60
2021/05/24 07:56:47;;;;;;;11.75;2.20;;;;;;;17.78;53.56;99986.97;5059802;28;20099;-58
2021/05/24 07:59:13;;;;;;;9.27;1.95;;;;;;;17.78;53.40;99990.44;5042267;28;20036;-59
2021/05/24 08:01:39;;;;;;;7.93;1.88;;;;;;;17.77;53.33;99995.94;5044863;28;20461;-58
2021/05/24 08:04:05;;;;;;;13.60;2.33;;;;;;;17.76;52.81;99995.13;5065602;28;20070;-60
2021/05/24 08:06:30;;;;;;;7.45;1.33;;;;;;;17.75;52.26;100004.09;5043999;28;20090;-59
2021/05/24 08:08:56;;;;;;;5.72;1.77;;;;;;;17.75;52.46;100006.75;5047395;28;20515;-58
2021/05/24 08:11:21;;;;;;;6.97;1.83;;;;;;;17.74;52.37;100007.78;5034984;28;20125;-58
2021/05/24 08:13:47;;;;;;;7.57;1.70;;;;;;;17.74;52.07;100009.63;5071630;28;20377;-59
2021/05/24 08:16:14;;;;;;;7.10;2.30;;;;;;;17.71;51.48;100010.03;5035885;28;20028;-59
2021/05/24 08:18:40;;;;;;;7.43;1.98;;;;;;;17.68;51.21;100011.25;5045806;28;20140;-60
2021/05/24 08:21:07;;;;;;;8.07;1.95;;;;;;;17.64;51.18;100005.50;5043437;28;20063;-59
2021/05/24 08:23:33;;;;;;;7.78;1.88;;;;;;;17.63;50.98;100011.00;5057508;28;20067;-59
2021/05/24 08:25:59;;;;;;;7.75;1.60;;;;;;;17.60;50.46;100014.88;5064254;28;20036;-61
2021/05/24 08:28:25;;;;;;;6.57;1.70;;;;;;;17.59;50.78;100017.72;5052260;28;20043;-60
2021/05/24 08:30:50;;;;;;;8.57;2.08;;;;;;;17.58;50.38;100030.19;5068638;28;20048;-60
2021/05/24 08:33:16;;;;;;;8.13;2.10;;;;;;;17.56;50.26;100020.78;5052668;28;20440;-60
2021/05/24 08:35:41;;;;;;;7.30;1.55;;;;;;;17.54;50.16;100026.31;5050273;28;20127;-58
2021/05/24 08:38:07;;;;;;;5.00;1.40;;;;;;;17.52;50.04;100028.34;5025132;28;20047;-60
2021/05/24 08:40:32;;;;;;;5.78;1.58;;;;;;;17.51;50.07;100032.00;5035332;28;20040;-58
2021/05/24 08:42:59;;;;;;;6.85;1.30;;;;;;;17.51;49.88;100042.59;5043253;28;20082;-59
2021/05/24 08:45:30;;;;;;;5.03;1.40;;;;;;;17.51;49.72;100041.78;5049413;28;20115;-59
2021/05/24 08:47:56;;;;;;;5.63;1.52;;;;;;;17.50;49.82;100043.63;5046873;28;20442;-59
2021/05/24 08:50:21;;;;;;;5.82;1.60;;;;;;;17.50;49.55;100045.44;5068432;28;20029;-60
2021/05/24 08:52:47;;;;;;;6.53;1.45;;;;;;;17.48;49.41;100045.66;5070414;28;20063;-58
2021/05/24 08:55:16;;;;;;;4.30;1.10;;;;;;;17.48;49.48;100047.50;5065082;28;20088;-58
2021/05/24 08:57:42;;;;;;;3.45;1.30;;;;;;;17.45;49.43;100053.19;5055594;28;20040;-58
2021/05/24 09:00:11;;;;;;;9.90;1.50;;;;;;;17.43;49.32;100061.34;5037546;28;20764;-58
2021/05/24 09:02:44;;;;;;;5.82;1.45;;;;;;;17.42;49.09;100072.16;5064449;28;20040;-59
2021/05/24 09:05:10;;;;;;;8.15;1.83;;;;;;;17.41;49.39;100074.00;5039317;28;20119;-61
2021/05/24 09:07:55;;;;;;;8.13;1.60;;;;;;;17.36;49.17;100079.09;5034728;28;20444;-58
2021/05/24 09:10:23;;;;;;;5.50;1.42;;;;;;;17.35;49.28;100070.28;5065050;28;20108;-59
2021/05/24 09:12:50;;;;;;;6.78;1.55;;;;;;;17.35;49.46;100086.19;5070271;28;20542;-59
2021/05/24 09:15:18;;;;;;;4.05;1.30;;;;;;;17.33;49.22;100082.13;5045638;28;20082;-58
2021/05/24 09:17:48;;;;;;;5.63;1.17;;;;;;;17.30;49.10;100088.66;5034965;28;20056;-60
2021/05/24 09:20:19;;;;;;;7.57;1.63;;;;;;;17.28;49.02;100088.03;5057119;28;20025;-59
2021/05/24 09:23:03;;;;;;;3.17;0.95;;;;;;;17.29;49.19;100091.50;5068955;28;20032;-60
2021/05/24 09:26:06;;;;;;;4.57;1.63;;;;;;;17.25;49.12;100099.03;5046306;28;20572;-59
2021/05/24 09:28:43;;;;;;;7.10;1.42;;;;;;;17.31;49.20;100097.41;5006848;28;20034;-59
2021/05/24 09:31:18;;;;;;;2.80;1.00;;;;;;;17.30;48.38;100103.72;5059703;28;20040;-60
2021/05/24 09:33:46;;;;;;;6.25;1.33;;;;;;;17.30;48.49;100101.09;5056290;28;20029;-59
2021/05/24 09:36:13;;;;;;;5.28;1.08;;;;;;;17.29;48.19;100110.88;5056595;28;20039;-60
2021/05/24 09:38:45;;;;;;;7.13;1.33;;;;;;;17.28;48.20;100113.72;5069939;28;20476;-59
2021/05/24 09:41:13;;;;;;;5.75;1.20;;;;;;;17.27;47.81;100109.44;5069407;28;20177;-59
2021/05/24 09:43:44;;;;;;;5.70;1.20;;;;;;;17.27;47.95;100110.25;5058447;28;20067;-58
2021/05/24 09:46:20;;;;;;;3.67;1.20;;;;;;;17.26;48.05;100113.91;5045596;28;20048;-58
2021/05/24 09:48:51;;;;;;;5.35;1.20;;;;;;;17.26;48.12;100116.56;5050380;28;20040;-59
2021/05/24 09:51:19;;;;;;;3.97;0.93;;;;;;;17.29;48.04;100118.81;5066408;28;20134;-64
2021/05/24 09:53:57;;;;;;;4.32;1.05;;;;;;;17.26;47.86;100113.91;5053347;28;20052;-60
2021/05/24 09:56:23;;;;;;;4.03;1.10;;;;;;;17.29;47.93;100118.81;5066220;28;20081;-60
2021/05/24 09:59:01;;;;;;;5.40;1.10;;;;;;;17.27;47.72;100123.50;5036042;28;20084;-60
2021/05/24 10:01:31;;;;;;;3.78;1.15;;;;;;;17.29;47.74;100113.53;5066678;28;20036;-58
2021/05/24 10:03:57;;;;;;;4.25;1.05;;;;;;;17.30;47.63;100124.94;5063131;28;20037;-58
2021/05/24 10:06:23;;;;;;;5.22;1.45;;;;;;;17.29;47.66;100124.13;5037500;28;20067;-60
2021/05/24 10:08:50;;;;;;;5.38;1.67;;;;;;;17.29;47.59;100126.78;5058236;28;20060;-58
2021/05/24 10:11:15;;;;;;;3.85;1.10;;;;;;;17.29;47.42;100129.44;5058815;28;20120;-61
2021/05/24 10:13:41;;;;;;;2.95;0.95;;;;;;;17.28;46.89;100132.28;5036701;28;20139;-63
2021/05/24 10:16:12;;;;;;;2.05;0.70;;;;;;;17.27;46.77;100130.63;5069172;28;20051;-59
2021/05/24 10:18:37;;;;;;;2.08;0.80;;;;;;;17.27;46.88;100146.53;5067357;28;20083;-59
2021/05/24 10:21:03;;;;;;;3.13;0.90;;;;;;;17.26;46.61;100136.97;5038394;28;20491;-58
2021/05/24 10:23:29;;;;;;;4.30;0.80;;;;;;;17.26;46.50;100140.44;5055297;28;20439;-59
2021/05/24 10:25:59;;;;;;;4.30;0.88;;;;;;;17.24;46.19;100153.06;5033171;28;20585;-58
2021/05/24 10:28:29;;;;;;;5.30;1.02;;;;;;;17.23;46.03;100151.44;5059629;28;20036;-58
2021/05/24 10:30:56;;;;;;;3.92;0.90;;;;;;;17.24;46.34;100163.66;5049501;28;20025;-60
2021/05/24 10:33:27;;;;;;;3.35;0.70;;;;;;;17.23;45.54;100162.03;5068258;28;20056;-58
2021/05/24 10:35:53;;;;;;;4.00;1.00;;;;;;;17.23;45.49;100159.38;5051400;28;20033;-59
2021/05/24 10:38:27;;;;;;;3.45;0.90;;;;;;;17.21;45.16;100158.75;5057118;28;20032;-58
2021/05/24 10:41:10;;;;;;;2.72;0.80;;;;;;;17.19;45.07;100174.03;5054456;28;20114;-59
2021/05/24 10:43:49;;;;;;;3.47;0.80;;;;;;;17.19;44.99;100171.38;5068856;28;20049;-59
2021/05/24 10:46:28;;;;;;;5.60;0.93;;;;;;;17.18;44.86;100168.91;5049487;28;20040;-58
2021/05/24 10:49:10;;;;;;;3.83;0.80;;;;;;;17.18;44.88;100175.03;5056475;28;20083;-58
2021/05/24 10:51:51;;;;;;;1.92;0.80;;;;;;;17.17;44.39;100181.34;5048706;28;20052;-60
2021/05/24 10:54:19;;;;;;;4.22;0.75;;;;;;;17.17;44.55;100175.22;5062750;28;20158;-58
2021/05/24 10:57:00;;;;;;;2.78;0.80;;;;;;;17.18;44.58;100179.53;5047102;28;20068;-59
2021/05/24 11:02:14;;;;;;;4.00;0.80;;;;;;;17.15;44.43;100177.25;5061728;28;20064;-58
2021/05/24 11:04:51;;;;;;;3.58;0.90;;;;;;;17.13;44.21;100185.41;5036827;28;20036;-59
2021/05/24 11:07:39;;;;;;;3.03;0.70;;;;;;;17.11;44.25;100187.44;5057247;28;20039;-58
2021/05/24 11:10:11;;;;;;;2.88;0.60;;;;;;;17.12;44.04;100186.44;5040381;28;20436;-62
2021/05/24 11:12:36;;;;;;;5.57;0.70;;;;;;;17.12;44.05;100186.44;5059966;28;20036;-59
2021/05/24 11:15:13;;;;;;;1.80;0.70;;;;;;;17.10;44.13;100187.66;5066800;28;20456;-60
2021/05/24 11:18:00;;;;;;;2.42;0.60;;;;;;;17.11;44.03;100199.88;5067350;28;20384;-58
2021/05/24 11:26:20;;;;;;;3.38;0.82;;;;;;;17.11;43.96;100198.03;5067488;28;20039;-63
2021/05/24 11:28:51;;;;;;;2.20;0.88;;;;;;;17.14;43.95;100200.31;5055468;28;20037;-58
2021/05/24 11:31:18;;;;;;;3.15;0.70;;;;;;;17.15;43.62;100196.63;5043521;28;20036;-58
2021/05/24 11:33:56;;;;;;;4.53;0.80;;;;;;;17.15;43.61;100195.81;5067181;28;20029;-58
2021/05/24 11:36:28;;;;;;;4.25;0.63;;;;;;;17.14;43.47;100199.47;5047890;28;20028;-58
2021/05/24 11:39:07;;;;;;;1.98;0.63;;;;;;;17.14;43.50;100200.31;5029182;28;20032;-60
2021/05/24 11:41:44;;;;;;;1.30;0.60;;;;;;;17.14;43.41;100205.59;5068355;28;20055;-58